Atwood, CO (80722)

2:50 PM MDT on July 29, 2016 (GMT -0600)
Sterling Municipal | | Change Station

Elev 4039 ft 40.62 °N, 103.26 °W | Updated 20 minutes ago

Clear
Clear
82 °F
Feels Like 82 °F
N
15
Wind Variable Wind from South
Gusts 21 mph

Today
High -- | Low -- °F
--% Chance of Precip.
Yesterday
High -- | Low -- °F
Precip. -- in
Pressure 30.10 in
Visibility 10.0 miles
Clouds Clear
Heat Index 82 °F
Dew Point 59 °F
Humidity 45%
Rainfall 0.00 in
Snow Depth Not available.
5:47 AM 8:10 PM
Waning Crescent, 19% visible
METAR KSTK 292030Z AUTO 18013G18KT 10SM CLR 28/15 A3010 RMK AO2
Pressure 30.10 in
Visibility 10.0 miles
Clouds Clear
Heat Index 82 °F
Dew Point 59 °F
Humidity 45%
Rainfall 0.00 in
Snow Depth Not available.
5:47 AM 8:10 PM
Waning Crescent, 19% visible
METAR KSTK 292030Z AUTO 18013G18KT 10SM CLR 28/15 A3010 RMK AO2

10-Day Weather Forecast

Almanac

Astronomy

Jul. 29, 2016 Rise Set
Actual Time
Civil Twilight
Nautical Twilight
Astronomical Twilight
Moon
Length of Visible Light
Length of Day
Tomorrow will be .
, % of the Moon is Illuminated

Today's Extremes

State Highs State Lows

Community

WunderPhotos

Upload Photos

1,928,411 photos uploaded!

WunderBlog® & News

Nearby

Air Quality

  Air Quality AQ Index Pollutant
Not available.

Snow Depth

Station Depth Elevation

Earthquake Activity

City Distance Mag. Time & Date
Minimum magnitude displayed is 2.5.

Coastal Water Temperatures

Place Temperature

Stations

Nearby Weather Stations

Station Location Temp. Windchill Dew Point Humidity Wind Precip. Elev Updated Type
                   

Watches & Warnings

There are currently no watches in effect.